Portada
METAR-TAF:

METAR-TAF

Aeroports :

Aeroport Internacional Maiquetía Simón Bolívar

Caracas, Veneçuela

latitud: 10-36N, longitud: 066-59W, altitud: 43 m

Observació

L'informe es va fer fa 11 minuts, a les 01:02 UTC
Temperatura
Pressió

METAR: SVMI 070102Z AUTO NIL

Hora: 21:13 (01:13 UTC)

Pronòstic

L'informe es va fer fa 3 hores i 13 minuts, a les 22:00 UTC
Pronòstic vàlid del 07 a les 00 UTC al 08 a les 00 UTC
Vent 4 kt del Est/Nord-Est
Visibilitat 10 km o més
Núvols disperses a una alçada de 1600 ft
Evolucionant progressivament
l' 07 a les 00 UTC al 07 a les 04 UTC
Vent 7 kt del Est
Visibilitat: 9000 m
Cel ennuvolat a una alçada de 1600 ft
plugim

TAF: SVMI 062200Z 0700/0800 07004KT 9999 SCT016 TX31/0617Z TN23/0617Z BECMG 0700/0704 09007KT 9000 -DZ BKN016

Observacions i pronòstics meteorològics de més de 4000 aeroports (METAR i TAF).

Les estacions disponibles són els punts grocs i vermells al mapa.

Posi el ratolí al punt desitjat per veure el nom de l'estació.

Feu clic per veure les observacions i els pronòstics meteorològics.

Per canviar el mapa: feu clic els botons verds amb una creu de color negre per apropar; al botó verd amb un guió per allunyar la imatge; o en les fletxes verdes per a mapes adjacents.


METAR-TAF: